KILN

Wilmington Airpark

Wilmington, Ohio, USA
KILN 261306Z 2613/2712 07005KT P6SM FEW005 SCT250 FM261500 11006KT P6SM SCT040 BKN200 FM270200 03003KT P6SM SCT040 BKN100
Issued Valid From Valid To
Apr-26 @ 13:06 UTC
(35 minutes ago)
Apr-26 @ 13:00 UTC
(41 minutes ago)
Apr-27 @ 12:00 UTC
(in 22 hours)
Apr-26 @ 13:00 to Apr-26 @ 15:00
KILN 261306Z 2613/2712 07005KT P6SM FEW005 SCT250
Wind Visibility Clouds
70° at 5 knots Greater than 6 miles
  • Few at 500' AGL
  • Scattered at 25,000' AGL
From Apr-26 @ 15:00 to Apr-27 @ 02:00
FM261500 11006KT P6SM SCT040 BKN200
Wind Visibility Clouds
110° at 6 knots Greater than 6 miles
  • Scattered at 4,000' AGL
  • Broken at 20,000' AGL
From Apr-27 @ 02:00 to Apr-27 @ 12:00
FM270200 03003KT P6SM SCT040 BKN100
Wind Visibility Clouds
30° at 3 knots Greater than 6 miles
  • Scattered at 4,000' AGL
  • Broken at 10,000' AGL
KILN 261306Z 2613/2712 07005KT P6SM FEW005 SCT250 FM261500 11006KT P6SM SCT040 BKN200 FM270200 03003KT P6SM SCT040 BKN100
Issued Apr-26 @ 13:06 UTC
(35 minutes ago)
Valid From Apr-26 @ 13:00 UTC
(41 minutes ago)
Valid To Apr-27 @ 12:00 UTC
(in 22 hours)
Apr-26 @ 13:00 - Apr-26 @ 15:00
Wind Visibility
70° at 5 knots Greater than 6 miles
Clouds
  • Few at 500' AGL
  • Scattered at 25,000' AGL
From Apr-26 @ 15:00 - Apr-27 @ 02:00
Wind Visibility
110° at 6 knots Greater than 6 miles
Clouds
  • Scattered at 4,000' AGL
  • Broken at 20,000' AGL
From Apr-27 @ 02:00 - Apr-27 @ 12:00
Wind Visibility
30° at 3 knots Greater than 6 miles
Clouds
  • Scattered at 4,000' AGL
  • Broken at 10,000' AGL